^^
Your Local Weather - Clay, NY Station Historical Data
Daily Summary for March 27, 2017 Units:  English    Metric   Both
« Previous Day
Next Day »
Daily Weekly Monthly Yearly Custom
  High: Low: Average:
Temperature: 47.6 °F 35.5 °F 40.8 °F
Dew Point: 42.2 °F 33.6 °F 37.5 °F
Humidity: 94% 79% 88%
Wind Speed: 4.0mph 0.0mph 1.8mph
Wind Gust: 7.0mph - -
Wind- - ENE
Pressure: 30.10 in 29.88 in -
Precipitation: 0.17 in    
Historical Graphs
 
 
Tabular Data for March 27, 2017
Time Temperature Dew Point Pressure Wind Wind Speed Wind Gust Humidity Rainfall Rate (Hourly) solar
00:00 39.0 °F 36.0 °F 30.10 in SE 2.0 mph 2.0 mph 89% 0.00 in 0 W/m2
00:06 39.1 °F 36.1 °F 30.10 in SE 2.0 mph 2.0 mph 89% 0.00 in 0 W/m2
00:12 39.0 °F 36.0 °F 30.10 in ESE 2.0 mph 2.0 mph 89% 0.00 in 0 W/m2
00:24 38.7 °F 35.7 °F 30.09 in SE 1.0 mph 2.0 mph 89% 0.10 in 0 W/m2
00:30 38.6 °F 35.6 °F 30.09 in NE 1.0 mph 1.0 mph 89% 0.05 in 0 W/m2
00:36 38.5 °F 35.5 °F 30.08 in SE 1.0 mph 4.0 mph 89% 0.00 in 0 W/m2
00:42 38.6 °F 35.9 °F 30.08 in SE 2.0 mph 2.0 mph 90% 0.00 in 0 W/m2
00:48 38.5 °F 35.8 °F 30.08 in ENE 1.0 mph 3.0 mph 90% 0.00 in 0 W/m2
00:54 38.3 °F 35.6 °F 30.07 in SE 2.0 mph 2.0 mph 90% 0.00 in 0 W/m2
01:00 38.3 °F 35.6 °F 30.07 in East 1.0 mph 1.0 mph 90% 0.00 in 0 W/m2
01:06 38.4 °F 35.7 °F 30.07 in SSE 1.0 mph 5.0 mph 90% 0.00 in 0 W/m2
01:12 38.5 °F 35.8 °F 30.07 in ESE 2.0 mph 2.0 mph 90% 0.00 in 0 W/m2
01:18 38.6 °F 35.9 °F 30.06 in SE 2.0 mph 2.0 mph 90% 0.00 in 0 W/m2
01:24 38.7 °F 36.0 °F 30.05 in ENE 2.0 mph 3.0 mph 90% 0.00 in 0 W/m2
01:30 38.5 °F 35.5 °F 30.05 in SE 2.0 mph 2.0 mph 89% 0.00 in 0 W/m2
01:36 38.5 °F 35.5 °F 30.05 in ESE 2.0 mph 3.0 mph 89% 0.00 in 0 W/m2
01:42 38.4 °F 35.4 °F 30.04 in East 2.0 mph 5.0 mph 89% 0.00 in 0 W/m2
01:48 38.5 °F 35.8 °F 30.03 in East 2.0 mph 6.0 mph 90% 0.00 in 0 W/m2
01:54 38.8 °F 35.8 °F 30.03 in ESE 3.0 mph 7.0 mph 89% 0.00 in 0 W/m2
02:00 39.0 °F 36.0 °F 30.03 in SE 4.0 mph 4.0 mph 89% 0.00 in 0 W/m2
02:06 39.1 °F 35.8 °F 30.04 in East 3.0 mph 7.0 mph 88% 0.00 in 0 W/m2
02:12 39.3 °F 36.0 °F 30.03 in ENE 3.0 mph 4.0 mph 88% 0.00 in 0 W/m2
02:18 39.3 °F 36.0 °F 30.03 in ESE 2.0 mph 4.0 mph 88% 0.00 in 0 W/m2
02:24 37.9 °F 34.4 °F 30.03 in ENE 2.0 mph 4.0 mph 87% 0.00 in 0 W/m2
02:30 37.0 °F 33.8 °F 30.03 in ESE 2.0 mph 2.0 mph 88% 0.00 in 0 W/m2
02:36 36.6 °F 33.7 °F 30.03 in East 2.0 mph 3.0 mph 89% 0.00 in 0 W/m2
02:42 36.6 °F 33.7 °F 30.02 in NE 1.0 mph 2.0 mph 89% 0.00 in 0 W/m2
02:48 36.3 °F 33.6 °F 30.03 in ENE 2.0 mph 4.0 mph 90% 0.00 in 0 W/m2
02:54 36.3 °F 33.6 °F 30.02 in ENE 3.0 mph 4.0 mph 90% 0.00 in 0 W/m2
03:00 36.3 °F 33.6 °F 30.03 in East 3.0 mph 3.0 mph 90% 0.00 in 0 W/m2
03:06 36.3 °F 33.9 °F 30.02 in ENE 3.0 mph 5.0 mph 91% 0.00 in 0 W/m2
03:12 36.2 °F 33.8 °F 30.02 in East 3.0 mph 3.0 mph 91% 0.00 in 0 W/m2
03:18 36.3 °F 33.9 °F 30.02 in ENE 2.0 mph 3.0 mph 91% 0.00 in 0 W/m2
03:24 36.1 °F 33.7 °F 30.02 in ENE 2.0 mph 2.0 mph 91% 0.00 in 0 W/m2
03:30 36.1 °F 33.7 °F 30.02 in ENE 1.0 mph 3.0 mph 91% 0.00 in 0 W/m2
03:36 36.0 °F 33.6 °F 30.02 in East 2.0 mph 4.0 mph 91% 0.00 in 0 W/m2
03:42 35.9 °F 33.8 °F 30.01 in East 1.0 mph 2.0 mph 92% 0.00 in 0 W/m2
03:48 36.0 °F 33.9 °F 30.00 in ENE 1.0 mph 2.0 mph 92% 0.00 in 0 W/m2
03:54 35.9 °F 33.8 °F 30.00 in ENE 2.0 mph 2.0 mph 92% 0.00 in 0 W/m2
04:00 35.8 °F 33.7 °F 30.00 in East 2.0 mph 3.0 mph 92% 0.00 in 0 W/m2
04:06 35.8 °F 33.7 °F 30.00 in East 2.0 mph 3.0 mph 92% 0.04 in 0 W/m2
04:12 35.7 °F 33.6 °F 29.99 in ENE 2.0 mph 3.0 mph 92% 0.07 in 0 W/m2
04:18 35.8 °F 33.7 °F 29.99 in ENE 2.0 mph 4.0 mph 92% 0.08 in 0 W/m2
04:24 35.8 °F 33.7 °F 29.99 in East 2.0 mph 2.0 mph 92% 0.08 in 0 W/m2
04:30 35.9 °F 33.8 °F 29.99 in ENE 2.0 mph 3.0 mph 92% 0.05 in 0 W/m2
04:36 35.8 °F 33.7 °F 29.98 in ENE 2.0 mph 5.0 mph 92% 0.00 in 0 W/m2
04:42 35.8 °F 33.7 °F 29.97 in East 3.0 mph 5.0 mph 92% 0.00 in 0 W/m2
04:48 36.1 °F 34.3 °F 29.98 in ENE 2.0 mph 5.0 mph 93% 0.00 in 0 W/m2
04:54 36.1 °F 34.0 °F 29.97 in ENE 2.0 mph 2.0 mph 92% 0.00 in 0 W/m2
05:00 36.0 °F 34.2 °F 29.97 in East 2.0 mph 3.0 mph 93% 0.00 in 0 W/m2
05:06 36.2 °F 34.4 °F 29.97 in ENE 2.0 mph 4.0 mph 93% 0.00 in 0 W/m2
05:12 36.0 °F 34.2 °F 29.97 in ESE 2.0 mph 2.0 mph 93% 0.00 in 0 W/m2
05:18 36.0 °F 34.2 °F 29.97 in East 2.0 mph 2.0 mph 93% 0.00 in 0 W/m2
05:24 35.9 °F 34.1 °F 29.97 in ESE 1.0 mph 2.0 mph 93% 0.00 in 0 W/m2
05:30 35.9 °F 34.1 °F 29.97 in SE 2.0 mph 2.0 mph 93% 0.00 in 0 W/m2
05:36 35.9 °F 34.1 °F 29.97 in ESE 1.0 mph 2.0 mph 93% 0.00 in 0 W/m2
05:42 35.8 °F 34.0 °F 29.97 in East 1.0 mph 3.0 mph 93% 0.00 in 0 W/m2
05:48 35.8 °F 34.0 °F 29.97 in ENE 3.0 mph 3.0 mph 93% 0.00 in 0 W/m2
05:54 35.6 °F 33.8 °F 29.97 in East 3.0 mph 5.0 mph 93% 0.00 in 0 W/m2
06:00 35.7 °F 33.9 °F 29.97 in ESE 3.0 mph 3.0 mph 93% 0.00 in 0 W/m2
06:06 35.7 °F 33.9 °F 29.96 in East 2.0 mph 3.0 mph 93% 0.12 in 0 W/m2
06:12 35.7 °F 33.9 °F 29.96 in ENE 3.0 mph 3.0 mph 93% 0.14 in 0 W/m2
06:18 35.7 °F 33.9 °F 29.96 in ENE 3.0 mph 4.0 mph 93% 0.09 in 0 W/m2
06:24 35.7 °F 33.9 °F 29.96 in East 3.0 mph 3.0 mph 93% 0.09 in 0 W/m2
06:30 35.7 °F 33.9 °F 29.95 in ENE 3.0 mph 3.0 mph 93% 0.08 in 0 W/m2
06:36 35.8 °F 34.0 °F 29.96 in ENE 4.0 mph 5.0 mph 93% 0.06 in 0 W/m2
06:42 35.6 °F 33.8 °F 29.95 in East 3.0 mph 3.0 mph 93% 0.05 in 0 W/m2
06:48 35.5 °F 33.7 °F 29.94 in East 2.0 mph 5.0 mph 93% 0.04 in 0 W/m2
06:54 35.6 °F 33.8 °F 29.94 in East 3.0 mph 3.0 mph 93% 0.04 in 0 W/m2
07:00 35.7 °F 33.9 °F 29.95 in ENE 3.0 mph 3.0 mph 93% 0.08 in 0 W/m2
07:06 35.8 °F 34.0 °F 29.94 in ENE 2.0 mph 3.0 mph 93% 0.07 in 0 W/m2
07:12 35.6 °F 33.8 °F 29.95 in ENE 2.0 mph 2.0 mph 93% 0.07 in 0 W/m2
07:18 35.7 °F 33.9 °F 29.96 in ENE 2.0 mph 2.0 mph 93% 0.04 in 5 W/m2
07:24 35.7 °F 33.9 °F 29.96 in East 2.0 mph 2.0 mph 93% 0.00 in 7 W/m2
07:30 35.8 °F 34.0 °F 29.95 in ENE 2.0 mph 2.0 mph 93% 0.00 in 9 W/m2
07:36 35.9 °F 34.1 °F 29.95 in ENE 2.0 mph 3.0 mph 93% 0.00 in 11 W/m2
07:42 36.1 °F 34.3 °F 29.95 in ENE 2.0 mph 4.0 mph 93% 0.00 in 11 W/m2
07:48 36.2 °F 34.4 °F 29.96 in East 2.0 mph 5.0 mph 93% 0.00 in 12 W/m2
07:54 36.1 °F 34.3 °F 29.96 in NE 2.0 mph 2.0 mph 93% 0.00 in 26 W/m2
08:00 36.0 °F 34.2 °F 29.96 in ENE 2.0 mph 7.0 mph 93% 0.00 in 32 W/m2
08:06 36.2 °F 34.4 °F 29.96 in ENE 3.0 mph 7.0 mph 93% 0.00 in 67 W/m2
08:12 36.3 °F 34.5 °F 29.96 in ENE 3.0 mph 3.0 mph 93% 0.00 in 40 W/m2
08:18 36.4 °F 34.6 °F 29.96 in East 3.0 mph 3.0 mph 93% 0.00 in 46 W/m2
08:26 36.5 °F 34.7 °F 29.96 in NE 3.0 mph 5.0 mph 93% 0.00 in 60 W/m2
08:32 36.6 °F 34.8 °F 29.96 in ENE 3.0 mph 3.0 mph 93% 0.00 in 60 W/m2
08:38 36.7 °F 34.9 °F 29.96 in ENE 3.0 mph 3.0 mph 93% 0.00 in 54 W/m2
08:44 36.7 °F 34.9 °F 29.96 in East 3.0 mph 3.0 mph 93% 0.00 in 53 W/m2
08:50 36.9 °F 35.3 °F 29.95 in ENE 3.0 mph 4.0 mph 94% 0.00 in 63 W/m2
08:56 37.1 °F 35.5 °F 29.95 in East 3.0 mph 4.0 mph 94% 0.00 in 102 W/m2
09:02 37.5 °F 35.9 °F 29.95 in ENE 3.0 mph 4.0 mph 94% 0.00 in 120 W/m2
09:08 37.8 °F 36.0 °F 29.95 in East 3.0 mph 4.0 mph 93% 0.00 in 127 W/m2
09:14 38.1 °F 36.5 °F 29.95 in ENE 3.0 mph 5.0 mph 94% 0.00 in 132 W/m2
09:20 38.4 °F 36.6 °F 29.95 in ENE 3.0 mph 4.0 mph 93% 0.00 in 137 W/m2
09:26 38.8 °F 37.2 °F 29.94 in ENE 3.0 mph 4.0 mph 94% 0.00 in 142 W/m2
09:32 39.1 °F 37.5 °F 29.94 in East 3.0 mph 3.0 mph 94% 0.00 in 156 W/m2
09:38 39.4 °F 37.8 °F 29.94 in ENE 3.0 mph 5.0 mph 94% 0.00 in 169 W/m2
09:44 39.8 °F 37.9 °F 29.94 in ENE 3.0 mph 4.0 mph 93% 0.00 in 185 W/m2
09:50 40.1 °F 38.5 °F 29.94 in ENE 2.0 mph 2.0 mph 94% 0.00 in 260 W/m2
09:56 40.5 °F 38.9 °F 29.94 in ENE 2.0 mph 6.0 mph 94% 0.00 in 188 W/m2
10:02 40.8 °F 38.9 °F 29.94 in ENE 3.0 mph 3.0 mph 93% 0.00 in 169 W/m2
10:08 40.9 °F 39.0 °F 29.93 in ENE 3.0 mph 3.0 mph 93% 0.00 in 91 W/m2
10:14 40.8 °F 38.9 °F 29.93 in ENE 3.0 mph 3.0 mph 93% 0.00 in 141 W/m2
10:20 41.0 °F 39.1 °F 29.93 in ENE 3.0 mph 3.0 mph 93% 0.00 in 114 W/m2
10:26 41.0 °F 39.1 °F 29.93 in NE 2.0 mph 4.0 mph 93% 0.00 in 123 W/m2
10:32 40.9 °F 38.8 °F 29.93 in ENE 3.0 mph 4.0 mph 92% 0.00 in 151 W/m2
10:38 41.2 °F 39.1 °F 29.93 in ENE 2.0 mph 5.0 mph 92% 0.00 in 111 W/m2
10:44 41.3 °F 39.2 °F 29.93 in ENE 2.0 mph 4.0 mph 92% 0.00 in 67 W/m2
10:50 41.2 °F 39.1 °F 29.93 in ENE 1.0 mph 2.0 mph 92% 0.00 in 125 W/m2
10:56 41.3 °F 39.2 °F 29.92 in ENE 2.0 mph 5.0 mph 92% 0.00 in 183 W/m2
11:02 41.4 °F 39.0 °F 29.92 in ENE 3.0 mph 4.0 mph 91% 0.00 in 178 W/m2
11:08 41.5 °F 39.1 °F 29.92 in ENE 3.0 mph 5.0 mph 91% 0.00 in 186 W/m2
11:14 41.8 °F 39.4 °F 29.92 in ENE 3.0 mph 3.0 mph 91% 0.00 in 144 W/m2
11:20 41.8 °F 39.1 °F 29.92 in ENE 3.0 mph 3.0 mph 90% 0.00 in 137 W/m2
11:26 41.9 °F 39.2 °F 29.92 in ENE 2.0 mph 3.0 mph 90% 0.00 in 118 W/m2
11:32 42.0 °F 39.3 °F 29.93 in NE 1.0 mph 2.0 mph 90% 0.00 in 116 W/m2
11:38 42.1 °F 39.4 °F 29.93 in NE 1.0 mph 3.0 mph 90% 0.00 in 91 W/m2
11:44 41.9 °F 39.2 °F 29.93 in NE 2.0 mph 2.0 mph 90% 0.00 in 84 W/m2
11:50 41.9 °F 39.2 °F 29.93 in NE 2.0 mph 2.0 mph 90% 0.00 in 107 W/m2
11:56 41.8 °F 38.8 °F 29.92 in NE 1.0 mph 2.0 mph 89% 0.00 in 107 W/m2
12:02 41.8 °F 38.8 °F 29.93 in NE 1.0 mph 2.0 mph 89% 0.00 in 146 W/m2
12:08 42.0 °F 39.0 °F 29.93 in ENE 1.0 mph 4.0 mph 89% 0.00 in 144 W/m2
12:14 42.2 °F 39.2 °F 29.93 in ENE 1.0 mph 2.0 mph 89% 0.00 in 137 W/m2
12:20 42.2 °F 39.2 °F 29.92 in ENE 2.0 mph 2.0 mph 89% 0.00 in 107 W/m2
12:26 42.2 °F 39.2 °F 29.92 in NE 2.0 mph 3.0 mph 89% 0.00 in 192 W/m2
12:32 42.6 °F 39.6 °F 29.92 in ENE 3.0 mph 3.0 mph 89% 0.00 in 207 W/m2
12:38 42.9 °F 39.6 °F 29.92 in ENE 3.0 mph 3.0 mph 88% 0.00 in 200 W/m2
12:44 43.4 °F 40.1 °F 29.92 in East 3.0 mph 3.0 mph 88% 0.00 in 315 W/m2
12:50 43.9 °F 40.3 °F 29.92 in ENE 3.0 mph 3.0 mph 87% 0.00 in 237 W/m2
12:56 44.2 °F 40.6 °F 29.92 in NE 2.0 mph 3.0 mph 87% 0.00 in 229 W/m2
13:02 44.5 °F 40.6 °F 29.92 in NE 2.0 mph 2.0 mph 86% 0.00 in 241 W/m2
13:08 44.7 °F 40.8 °F 29.92 in NE 2.0 mph 2.0 mph 86% 0.00 in 185 W/m2
13:14 44.8 °F 40.9 °F 29.92 in ENE 2.0 mph 2.0 mph 86% 0.00 in 345 W/m2
13:20 45.3 °F 41.4 °F 29.92 in ENE 2.0 mph 2.0 mph 86% 0.00 in 316 W/m2
13:26 46.0 °F 42.0 °F 29.92 in NE 2.0 mph 2.0 mph 86% 0.00 in 352 W/m2
13:32 45.9 °F 41.0 °F 29.92 in NE 2.0 mph 2.0 mph 83% 0.00 in 176 W/m2
13:38 46.0 °F 41.4 °F 29.92 in ENE 2.0 mph 2.0 mph 84% 0.00 in 285 W/m2
13:44 46.2 °F 41.6 °F 29.92 in ENE 2.0 mph 2.0 mph 84% 0.00 in 221 W/m2
13:50 46.3 °F 41.4 °F 29.91 in ENE 2.0 mph 2.0 mph 83% 0.00 in 171 W/m2
13:56 46.6 °F 42.0 °F 29.91 in ENE 2.0 mph 2.0 mph 84% 0.00 in 165 W/m2
14:02 46.4 °F 41.2 °F 29.91 in ENE 2.0 mph 3.0 mph 82% 0.00 in 158 W/m2
14:08 46.3 °F 41.1 °F 29.91 in ENE 2.0 mph 3.0 mph 82% 0.00 in 171 W/m2
14:14 46.3 °F 41.4 °F 29.91 in ENE 1.0 mph 2.0 mph 83% 0.00 in 250 W/m2
14:20 46.4 °F 41.2 °F 29.91 in ENE 2.0 mph 3.0 mph 82% 0.00 in 213 W/m2
14:26 46.3 °F 41.1 °F 29.90 in ENE 2.0 mph 5.0 mph 82% 0.00 in 174 W/m2
14:32 46.5 °F 41.6 °F 29.90 in ENE 1.0 mph 2.0 mph 83% 0.00 in 206 W/m2
14:38 46.6 °F 41.4 °F 29.90 in ENE 1.0 mph 2.0 mph 82% 0.00 in 332 W/m2
14:44 47.1 °F 42.2 °F 29.90 in ENE 1.0 mph 2.0 mph 83% 0.00 in 325 W/m2
14:50 47.1 °F 41.6 °F 29.90 in ENE 1.0 mph 2.0 mph 81% 0.00 in 174 W/m2
14:56 46.8 °F 41.3 °F 29.89 in ENE 2.0 mph 4.0 mph 81% 0.00 in 214 W/m2
15:02 46.9 °F 41.4 °F 29.89 in ENE 3.0 mph 3.0 mph 81% 0.00 in 425 W/m2
15:08 47.0 °F 41.5 °F 29.89 in ENE 3.0 mph 4.0 mph 81% 0.00 in 269 W/m2
15:14 47.4 °F 41.5 °F 29.89 in NE 2.0 mph 3.0 mph 80% 0.00 in 230 W/m2
15:20 47.2 °F 41.3 °F 29.89 in NE 2.0 mph 3.0 mph 80% 0.00 in 120 W/m2
15:26 46.9 °F 41.1 °F 29.89 in NE 2.0 mph 3.0 mph 80% 0.00 in 139 W/m2
15:32 46.8 °F 41.0 °F 29.89 in NE 2.0 mph 3.0 mph 80% 0.00 in 237 W/m2
15:38 47.0 °F 41.5 °F 29.89 in NE 2.0 mph 3.0 mph 81% 0.00 in 309 W/m2
15:42 47.4 °F 41.9 °F 29.89 in NNE 2.0 mph 2.0 mph 81% 0.00 in 350 W/m2
15:44 47.6 °F 42.1 °F 29.89 in NE 2.0 mph 3.0 mph 81% 0.00 in 329 W/m2
15:50 47.6 °F 41.4 °F 29.89 in ENE 2.0 mph 2.0 mph 79% 0.00 in 186 W/m2
15:54 47.5 °F 41.6 °F 29.89 in ENE 2.0 mph 2.0 mph 80% 0.00 in 172 W/m2
16:00 47.3 °F 41.4 °F 29.89 in ENE 2.0 mph 2.0 mph 80% 0.00 in 221 W/m2
16:04 47.3 °F 41.4 °F 29.89 in NNE 2.0 mph 4.0 mph 80% 0.00 in 146 W/m2
16:06 47.1 °F 40.9 °F 29.89 in NE 3.0 mph 4.0 mph 79% 0.00 in 123 W/m2
16:12 46.8 °F 41.0 °F 29.89 in ENE 3.0 mph 5.0 mph 80% 0.00 in 95 W/m2
16:14 46.8 °F 41.0 °F 29.89 in ENE 3.0 mph 5.0 mph 80% 0.00 in 125 W/m2
16:20 46.9 °F 41.1 °F 29.89 in NE 2.0 mph 2.0 mph 80% 0.00 in 139 W/m2
16:22 46.8 °F 41.0 °F 29.89 in NE 2.0 mph 2.0 mph 80% 0.00 in 114 W/m2
16:28 46.8 °F 41.0 °F 29.88 in NE 2.0 mph 2.0 mph 80% 0.00 in 167 W/m2
16:30 46.9 °F 41.4 °F 29.89 in NE 2.0 mph 2.0 mph 81% 0.00 in 148 W/m2
16:36 46.8 °F 41.3 °F 29.89 in ENE 2.0 mph 4.0 mph 81% 0.00 in 102 W/m2
16:42 46.9 °F 41.1 °F 29.89 in ENE 2.0 mph 2.0 mph 80% 0.00 in 141 W/m2
16:44 46.9 °F 41.1 °F 29.89 in ENE 1.0 mph 3.0 mph 80% 0.00 in 134 W/m2
16:48 46.8 °F 41.0 °F 29.89 in ENE 2.0 mph 3.0 mph 80% 0.00 in 88 W/m2
16:54 46.6 °F 40.8 °F 29.89 in NE 2.0 mph 3.0 mph 80% 0.00 in 72 W/m2
17:00 46.2 °F 40.7 °F 29.89 in ENE 2.0 mph 2.0 mph 81% 0.00 in 123 W/m2
17:06 46.2 °F 40.7 °F 29.89 in ENE 2.0 mph 2.0 mph 81% 0.00 in 116 W/m2
17:12 46.2 °F 40.7 °F 29.89 in ENE 2.0 mph 2.0 mph 81% 0.00 in 114 W/m2
17:18 46.1 °F 40.6 °F 29.89 in ENE 2.0 mph 3.0 mph 81% 0.00 in 76 W/m2
17:24 45.9 °F 40.4 °F 29.89 in NE 1.0 mph 3.0 mph 81% 0.00 in 104 W/m2
17:30 45.8 °F 40.3 °F 29.89 in NNE 1.0 mph 3.0 mph 81% 0.00 in 97 W/m2
17:36 45.6 °F 40.1 °F 29.88 in NE 2.0 mph 3.0 mph 81% 0.00 in 83 W/m2
17:42 45.3 °F 40.1 °F 29.89 in ENE 2.0 mph 3.0 mph 82% 0.00 in 62 W/m2
17:48 45.1 °F 39.9 °F 29.88 in ENE 3.0 mph 3.0 mph 82% 0.00 in 62 W/m2
17:54 44.8 °F 39.6 °F 29.88 in East 3.0 mph 3.0 mph 82% 0.00 in 53 W/m2
18:00 44.7 °F 39.5 °F 29.89 in East 2.0 mph 2.0 mph 82% 0.00 in 37 W/m2
18:06 44.7 °F 39.9 °F 29.89 in East 1.0 mph 1.0 mph 83% 0.00 in 40 W/m2
18:12 44.4 °F 39.2 °F 29.89 in East 2.0 mph 2.0 mph 82% 0.00 in 40 W/m2
18:18 44.4 °F 39.6 °F 29.89 in East 1.0 mph 2.0 mph 83% 0.00 in 33 W/m2
18:24 44.3 °F 39.5 °F 29.89 in East 1.0 mph 1.0 mph 83% 0.00 in 23 W/m2
18:30 44.2 °F 39.4 °F 29.89 in ENE 1.0 mph 3.0 mph 83% 0.00 in 18 W/m2
18:36 44.0 °F 39.2 °F 29.89 in ENE 2.0 mph 3.0 mph 83% 0.00 in 14 W/m2
18:42 43.9 °F 39.4 °F 29.89 in ENE 1.0 mph 3.0 mph 84% 0.00 in 9 W/m2
18:48 43.8 °F 39.3 °F 29.89 in ENE 1.0 mph 3.0 mph 84% 0.00 in 5 W/m2
18:54 43.7 °F 39.2 °F 29.89 in ENE 1.0 mph 2.0 mph 84% 0.00 in 0 W/m2
19:00 43.5 °F 39.0 °F 29.89 in ENE 1.0 mph 1.0 mph 84% 0.00 in 0 W/m2
19:06 43.4 °F 38.9 °F 29.89 in ENE 1.0 mph 1.0 mph 84% 0.00 in 0 W/m2
19:12 43.3 °F 38.8 °F 29.89 in East 1.0 mph 1.0 mph 84% 0.00 in 0 W/m2
19:18 43.2 °F 38.7 °F 29.89 in NNE 1.0 mph 3.0 mph 84% 0.00 in 0 W/m2
19:26 43.0 °F 38.8 °F 29.90 in NE 1.0 mph 1.0 mph 85% 0.00 in 0 W/m2
19:32 42.8 °F 38.6 °F 29.90 in NE 1.0 mph 1.0 mph 85% 0.00 in 0 W/m2
19:38 42.6 °F 38.4 °F 29.90 in NE 1.0 mph 2.0 mph 85% 0.00 in 0 W/m2
19:44 42.5 °F 38.3 °F 29.90 in NE 1.0 mph 3.0 mph 85% 0.00 in 0 W/m2
19:50 42.3 °F 38.1 °F 29.90 in NE 1.0 mph 1.0 mph 85% 0.00 in 0 W/m2
19:56 42.2 °F 38.0 °F 29.90 in NE 1.0 mph 1.0 mph 85% 0.00 in 0 W/m2
20:02 42.1 °F 38.2 °F 29.90 in NE 1.0 mph 2.0 mph 86% 0.00 in 0 W/m2
20:08 41.9 °F 38.0 °F 29.90 in NE 1.0 mph 3.0 mph 86% 0.00 in 0 W/m2
20:14 41.7 °F 37.8 °F 29.91 in NE 1.0 mph 3.0 mph 86% 0.00 in 0 W/m2
20:20 41.7 °F 37.8 °F 29.91 in Calm     86% 0.00 in 0 W/m2
20:26 41.8 °F 37.9 °F 29.91 in Calm   1.0 mph 86% 0.00 in 0 W/m2
20:32 41.9 °F 38.0 °F 29.91 in Calm     86% 0.00 in 0 W/m2
20:38 41.9 °F 38.0 °F 29.91 in Calm     86% 0.00 in 0 W/m2
20:44 41.7 °F 37.8 °F 29.91 in Calm   2.0 mph 86% 0.00 in 0 W/m2
20:50 41.7 °F 37.8 °F 29.91 in NE 1.0 mph 1.0 mph 86% 0.00 in 0 W/m2
20:56 41.2 °F 37.3 °F 29.91 in NE 1.0 mph 1.0 mph 86% 0.00 in 0 W/m2
21:02 41.0 °F 37.4 °F 29.91 in Calm     87% 0.00 in 0 W/m2
21:08 40.8 °F 37.2 °F 29.91 in Calm     87% 0.00 in 0 W/m2
21:14 40.5 °F 36.9 °F 29.91 in Calm     87% 0.00 in 0 W/m2
21:20 40.6 °F 37.3 °F 29.91 in Calm     88% 0.00 in 0 W/m2
21:26 40.9 °F 37.6 °F 29.91 in Calm   1.0 mph 88% 0.00 in 0 W/m2
21:32 40.6 °F 37.3 °F 29.91 in NE 1.0 mph 1.0 mph 88% 0.00 in 0 W/m2
21:38 40.5 °F 37.2 °F 29.91 in Calm   1.0 mph 88% 0.00 in 0 W/m2
21:44 40.4 °F 37.1 °F 29.91 in Calm   1.0 mph 88% 0.00 in 0 W/m2
21:50 40.2 °F 36.9 °F 29.91 in Calm     88% 0.00 in 0 W/m2
21:56 40.1 °F 36.8 °F 29.91 in Calm   1.0 mph 88% 0.00 in 0 W/m2
22:02 40.1 °F 37.1 °F 29.91 in Calm     89% 0.00 in 0 W/m2
22:08 40.0 °F 37.0 °F 29.91 in Calm     89% 0.00 in 0 W/m2
22:14 40.1 °F 37.1 °F 29.91 in Calm     89% 0.00 in 0 W/m2
22:20 40.2 °F 37.2 °F 29.91 in Calm     89% 0.00 in 0 W/m2
22:26 40.0 °F 37.0 °F 29.91 in Calm     89% 0.00 in 0 W/m2
22:32 40.0 °F 37.0 °F 29.91 in Calm     89% 0.00 in 0 W/m2
22:38 40.2 °F 37.2 °F 29.91 in Calm   1.0 mph 89% 0.00 in 0 W/m2
22:44 40.1 °F 37.1 °F 29.91 in Calm     89% 0.00 in 0 W/m2
22:50 40.0 °F 37.0 °F 29.91 in Calm   1.0 mph 89% 0.00 in 0 W/m2
22:56 39.9 °F 36.9 °F 29.91 in Calm   1.0 mph 89% 0.00 in 0 W/m2
23:04 40.1 °F 37.1 °F 29.91 in Calm     89% 0.00 in 0 W/m2
23:10 40.1 °F 37.1 °F 29.91 in Calm     89% 0.00 in 0 W/m2
23:16 40.0 °F 37.0 °F 29.91 in Calm     89% 0.00 in 0 W/m2
23:24 39.8 °F 36.8 °F 29.91 in Calm     89% 0.00 in 0 W/m2
23:30 39.6 °F 36.6 °F 29.91 in Calm     89% 0.00 in 0 W/m2
23:36 39.6 °F 36.6 °F 29.91 in Calm     89% 0.00 in 0 W/m2
23:42 39.7 °F 36.7 °F 29.91 in Calm     89% 0.00 in 0 W/m2
23:48 39.8 °F 37.1 °F 29.91 in Calm     90% 0.00 in 0 W/m2
23:54 39.6 °F 36.6 °F 29.91 in Calm     89% 0.00 in 0 W/m2
Country Meadow, Clay, NY, USA
Compliments of Weather Underground - 2 mb